Time;durP1;ratioP1;P1;durP2;ratioP2;P2;SDS_P1;SDS_P2;PMS_P1;PMS_P2;Temp;Humidity;BMP_temperature;BMP_pressure;BME280_temperature;BME280_humidity;BME280_pressure;Samples;Min_cycle;Max_cycle;Signal;HPM_P1;HPM_P2
2023/10/06 00:03:36;;;;;;;3.92;2.08;;;;;;;12.12;77.11;100689.66;6197755;28;20091;-72
2023/10/06 00:06:38;;;;;;;3.95;1.90;;;;;;;12.40;76.91;100686.28;6197342;28;20406;-72
2023/10/06 00:09:43;;;;;;;4.83;2.37;;;;;;;13.65;70.61;100690.03;6196389;28;20137;-72
2023/10/06 00:12:48;;;;;;;5.10;2.50;;;;;;;13.88;69.38;100697.28;6197397;28;20129;-72
2023/10/06 00:15:50;;;;;;;5.20;2.30;;;;;;;13.84;68.88;100694.94;6197060;28;20095;-72
2023/10/06 00:18:53;;;;;;;5.53;2.67;;;;;;;13.94;68.01;100696.03;6197311;28;20081;-73
2023/10/06 00:22:03;;;;;;;5.38;2.40;;;;;;;13.87;68.61;100690.31;6195099;28;20042;-72
2023/10/06 00:25:13;;;;;;;4.47;2.00;;;;;;;13.97;68.84;100692.38;6197383;28;20050;-72
2023/10/06 00:28:22;;;;;;;5.60;2.30;;;;;;;13.87;68.25;100699.97;6196575;28;20058;-71
2023/10/06 00:31:23;;;;;;;8.27;2.38;;;;;;;13.91;68.60;100704.09;6195683;28;20047;-71
2023/10/06 00:34:29;;;;;;;9.15;2.83;;;;;;;13.82;69.10;100700.28;6196586;28;20108;-70
2023/10/06 00:37:30;;;;;;;7.32;3.00;;;;;;;13.86;69.26;100701.78;6196799;28;20054;-70
2023/10/06 00:40:35;;;;;;;4.40;2.42;;;;;;;13.91;69.51;100707.53;6195367;28;20133;-70
2023/10/06 00:43:37;;;;;;;8.02;2.45;;;;;;;13.92;69.21;100697.91;6196672;28;20068;-71
2023/10/06 00:46:42;;;;;;;3.40;2.08;;;;;;;13.85;69.19;100697.44;6196348;28;20108;-70
2023/10/06 00:49:43;;;;;;;4.28;2.45;;;;;;;13.91;68.87;100698.84;6298067;28;20093;-73
2023/10/06 00:52:44;;;;;;;5.27;2.00;;;;;;;13.88;68.12;100699.88;6195315;28;20053;-72
2023/10/06 00:55:45;;;;;;;5.70;2.60;;;;;;;13.89;68.80;100700.72;6195536;28;20090;-72
2023/10/06 00:58:46;;;;;;;4.28;2.30;;;;;;;13.86;69.14;100690.44;6195231;28;20418;-73
2023/10/06 01:01:47;;;;;;;3.60;2.08;;;;;;;13.77;69.42;100694.47;6196257;28;20137;-73
2023/10/06 01:04:52;;;;;;;3.28;2.08;;;;;;;13.73;69.25;100692.16;6195229;28;20414;-72
2023/10/06 01:07:53;;;;;;;4.10;2.28;;;;;;;13.73;69.67;100700.84;6196399;28;20050;-70
2023/10/06 01:11:11;;;;;;;3.78;2.38;;;;;;;13.66;69.59;100700.41;6195999;28;20046;-70
2023/10/06 01:14:15;;;;;;;5.22;2.45;;;;;;;13.69;69.87;100697.63;6195894;28;20095;-70
2023/10/06 01:17:16;;;;;;;4.57;2.33;;;;;;;13.76;69.38;100697.22;6194679;28;20415;-71
2023/10/06 01:20:41;;;;;;;7.55;2.65;;;;;;;13.65;69.93;100711.00;6195690;28;20054;-71
2023/10/06 01:23:41;;;;;;;7.20;2.45;;;;;;;13.59;70.28;100714.00;6194679;28;20494;-72
2023/10/06 01:26:42;;;;;;;4.53;2.70;;;;;;;12.40;74.97;100712.44;6194697;28;20057;-72
2023/10/06 01:29:45;;;;;;;8.82;2.60;;;;;;;11.99;77.18;100713.03;6195738;28;20058;-72
2023/10/06 01:32:49;;;;;;;;;;;;;;;11.84;79.22;100715.56;6196041;28;20504;-72
2023/10/06 01:35:50;;;;;;;3.80;2.15;;;;;;;11.75;79.62;100721.28;6194889;28;19995;-72
2023/10/06 01:38:52;;;;;;;7.47;2.33;;;;;;;11.57;80.88;100717.94;6194872;28;20074;-72
2023/10/06 01:41:52;;;;;;;3.70;2.20;;;;;;;11.52;81.52;100721.72;6194698;28;20043;-73
2023/10/06 01:44:53;;;;;;;5.97;2.83;;;;;;;11.55;81.67;100718.91;6193403;28;20050;-72
2023/10/06 01:48:22;;;;;;;4.75;2.20;;;;;;;11.56;81.36;100712.78;6195549;28;20055;-71
2023/10/06 01:51:19;;;;;;;4.65;2.55;;;;;;;11.49;82.26;100726.19;6195201;28;20053;-72
2023/10/06 01:54:29;;;;;;;7.53;2.58;;;;;;;11.47;82.12;100721.97;6194434;28;20442;-73
2023/10/06 01:57:30;;;;;;;4.60;2.05;;;;;;;11.45;82.71;100726.44;6195343;28;20533;-72
2023/10/06 02:00:33;;;;;;;4.07;2.33;;;;;;;11.47;82.73;100729.81;6195206;28;20050;-72
2023/10/06 02:03:38;;;;;;;3.75;2.20;;;;;;;11.45;83.12;100727.28;6194179;28;20107;-72
2023/10/06 02:06:44;;;;;;;6.47;2.33;;;;;;;11.39;83.14;100724.16;6194992;28;20498;-73
2023/10/06 02:09:45;;;;;;;5.57;2.63;;;;;;;11.29;83.51;100731.63;6195182;28;20309;-72
2023/10/06 02:12:46;;;;;;;6.88;2.50;;;;;;;11.28;83.91;100727.31;6194098;28;20047;-73
2023/10/06 02:15:58;;;;;;;5.63;2.65;;;;;;;11.20;84.30;100732.09;6194824;28;20062;-71
2023/10/06 02:19:07;;;;;;;3.25;2.20;;;;;;;11.14;84.53;100722.84;6226293;28;20533;-71
2023/10/06 02:22:11;;;;;;;4.25;2.30;;;;;;;11.11;84.34;100730.81;6254002;28;20055;-73
2023/10/06 02:25:12;;;;;;;4.55;2.60;;;;;;;11.10;84.76;100723.94;6288763;28;20063;-70
2023/10/06 02:28:14;;;;;;;5.07;2.50;;;;;;;11.04;84.63;100730.31;6209800;28;20435;-71
2023/10/06 02:31:21;;;;;;;5.18;2.67;;;;;;;11.07;85.04;100734.53;6197785;28;20121;-72
2023/10/06 02:34:27;;;;;;;3.83;2.30;;;;;;;11.04;85.28;100730.31;6195754;28;20490;-73
2023/10/06 02:37:28;;;;;;;5.75;2.67;;;;;;;10.99;85.53;100734.91;6195071;28;20054;-70
2023/10/06 02:40:36;;;;;;;4.15;2.47;;;;;;;11.01;85.42;100743.50;6234117;28;20049;-70
2023/10/06 02:43:40;;;;;;;4.55;2.55;;;;;;;10.99;85.46;100742.75;6223878;28;20067;-70
2023/10/06 02:46:44;;;;;;;10.57;2.58;;;;;;;10.93;85.09;100737.00;6196561;28;20131;-70
2023/10/06 02:49:48;;;;;;;3.35;2.63;;;;;;;10.86;85.55;100737.31;6220718;28;20114;-71
2023/10/06 02:52:53;;;;;;;5.38;2.95;;;;;;;10.90;85.42;100748.44;6228148;28;20399;-71
2023/10/06 02:55:59;;;;;;;9.93;3.13;;;;;;;10.89;86.07;100750.22;6269990;28;20045;-72
2023/10/06 02:59:20;;;;;;;7.35;3.13;;;;;;;10.85;85.87;100745.22;6245238;28;20555;-71
2023/10/06 03:02:23;;;;;;;4.80;2.67;;;;;;;10.81;85.88;100744.56;6222020;28;20191;-71
2023/10/06 03:05:33;;;;;;;3.33;2.55;;;;;;;10.82;86.38;100745.38;6262670;28;20048;-72
2023/10/06 03:08:35;;;;;;;3.70;2.35;;;;;;;10.78;86.90;100751.69;6261481;28;20045;-71
2023/10/06 03:11:38;;;;;;;;;;;;;;;10.71;87.25;100745.94;6232859;28;20092;-71
2023/10/06 03:14:39;;;;;;;16.08;3.17;;;;;;;10.71;86.47;100751.16;6203630;28;20020;-71
2023/10/06 03:17:40;;;;;;;5.82;3.30;;;;;;;10.68;87.50;100746.91;6230953;28;20050;-73
2023/10/06 03:20:48;;;;;;;6.70;3.03;;;;;;;10.62;87.91;100743.78;6215074;28;20046;-73
2023/10/06 03:24:05;;;;;;;6.00;2.90;;;;;;;10.59;87.64;100742.19;6191509;28;20050;-73
2023/10/06 03:27:14;;;;;;;4.35;2.70;;;;;;;10.62;88.22;100746.38;6269973;28;20133;-71
2023/10/06 03:30:18;;;;;;;4.68;2.58;;;;;;;10.57;88.31;100751.00;6193497;28;20050;-71
2023/10/06 03:33:24;;;;;;;4.65;2.70;;;;;;;10.56;88.82;100747.53;6185155;28;20050;-71
2023/10/06 03:36:38;;;;;;;4.85;2.80;;;;;;;10.55;89.65;100756.28;6217511;28;20044;-71
2023/10/06 03:39:48;;;;;;;6.55;3.05;;;;;;;10.56;89.51;100750.13;6196973;28;20050;-71
2023/10/06 03:42:50;;;;;;;6.15;3.05;;;;;;;10.60;89.02;100759.50;6212302;28;20484;-71
2023/10/06 03:45:51;;;;;;;6.50;3.30;;;;;;;10.75;89.17;100762.25;6225640;28;20509;-70
2023/10/06 03:48:52;;;;;;;4.78;2.83;;;;;;;10.65;89.56;100765.34;6191436;28;20133;-70
2023/10/06 03:51:56;;;;;;;5.72;3.35;;;;;;;10.58;88.96;100771.78;6235706;28;20050;-71
2023/10/06 03:54:58;;;;;;;5.18;2.78;;;;;;;10.58;89.62;100770.94;6199473;28;20141;-73
2023/10/06 03:57:59;;;;;;;6.32;3.28;;;;;;;10.55;90.09;100776.34;6199615;28;20576;-73
2023/10/06 04:01:09;;;;;;;4.63;2.72;;;;;;;10.61;90.42;100787.31;6199075;28;20050;-73
2023/10/06 04:04:14;;;;;;;6.32;3.50;;;;;;;10.66;89.48;100787.91;6216343;28;20125;-73
2023/10/06 04:07:16;;;;;;;5.90;2.50;;;;;;;10.68;89.92;100786.06;6194888;28;20487;-72
2023/10/06 04:10:16;;;;;;;7.03;3.10;;;;;;;10.74;89.48;100786.69;6205218;28;20053;-71
2023/10/06 04:13:17;;;;;;;4.13;2.90;;;;;;;10.80;90.29;100786.38;6194496;28;20054;-71
2023/10/06 04:16:19;;;;;;;6.67;3.43;;;;;;;10.82;89.85;100795.00;6197054;28;20490;-71
2023/10/06 04:19:22;;;;;;;8.53;3.07;;;;;;;10.80;90.24;100797.66;6197087;28;20058;-71
2023/10/06 04:22:23;;;;;;;5.95;3.35;;;;;;;10.82;90.94;100802.81;6195920;28;20050;-70
2023/10/06 04:25:26;;;;;;;5.00;2.95;;;;;;;10.77;90.71;100800.44;6297676;28;20049;-71
2023/10/06 04:28:27;;;;;;;6.50;3.20;;;;;;;10.82;91.04;100811.50;6229701;28;20131;-71
2023/10/06 04:31:28;;;;;;;6.32;3.33;;;;;;;10.83;91.38;100815.81;6197053;28;20046;-70
2023/10/06 04:34:35;;;;;;;6.43;3.00;;;;;;;10.84;92.22;100801.81;6195324;28;20104;-71
2023/10/06 04:37:36;;;;;;;4.95;3.10;;;;;;;10.82;92.22;100816.72;6194965;28;20054;-71
2023/10/06 04:40:40;;;;;;;8.55;3.40;;;;;;;10.87;92.70;100819.09;6196816;28;20100;-72
2023/10/06 04:43:44;;;;;;;6.30;2.60;;;;;;;10.85;91.92;100811.34;6196124;28;20060;-73
2023/10/06 04:46:47;;;;;;;5.18;2.95;;;;;;;10.89;92.59;100815.50;6196860;28;20050;-73
2023/10/06 04:49:52;;;;;;;5.43;3.15;;;;;;;10.88;92.62;100819.00;6196497;28;20057;-73
2023/10/06 04:52:54;;;;;;;4.75;3.05;;;;;;;10.91;92.43;100810.19;6195146;28;20123;-72
2023/10/06 04:55:55;;;;;;;5.28;2.97;;;;;;;10.93;93.10;100816.16;6184727;28;20058;-72
2023/10/06 04:58:56;;;;;;;6.43;2.95;;;;;;;11.03;92.86;100820.00;6173579;28;20050;-72
2023/10/06 05:02:02;;;;;;;10.57;2.92;;;;;;;11.07;92.42;100824.16;6192805;28;20502;-73
2023/10/06 05:05:05;;;;;;;6.43;3.05;;;;;;;11.13;92.41;100833.44;6196323;28;20089;-73
2023/10/06 05:08:09;;;;;;;5.00;2.80;;;;;;;11.15;92.70;100829.00;6195112;28;20100;-73
2023/10/06 05:11:11;;;;;;;5.28;3.13;;;;;;;11.17;92.25;100836.75;6196090;28;20062;-73
2023/10/06 05:14:12;;;;;;;6.40;3.25;;;;;;;11.23;92.27;100839.88;6196460;28;20107;-73
2023/10/06 05:17:16;;;;;;;6.65;3.00;;;;;;;11.25;91.79;100840.66;6194894;28;20050;-73
2023/10/06 05:20:20;;;;;;;7.60;3.00;;;;;;;11.35;92.15;100850.66;6196325;28;20119;-72
2023/10/06 05:23:21;;;;;;;4.88;3.15;;;;;;;11.38;91.86;100850.47;6194781;28;20047;-73
2023/10/06 05:26:24;;;;;;;7.00;3.38;;;;;;;11.41;91.67;100860.78;6198855;28;20057;-73
2023/10/06 05:29:25;;;;;;;10.73;3.15;;;;;;;11.50;91.48;100857.69;6193755;28;20111;-72
2023/10/06 05:32:26;;;;;;;5.20;3.50;;;;;;;11.54;91.95;100855.75;6195641;28;20050;-73
2023/10/06 05:35:29;;;;;;;8.95;3.50;;;;;;;11.56;92.16;100854.75;6194554;28;20050;-73
2023/10/06 05:38:33;;;;;;;6.78;3.10;;;;;;;11.61;92.04;100860.59;6194303;28;20058;-73
2023/10/06 05:41:34;;;;;;;9.25;3.22;;;;;;;11.69;90.95;100862.78;6195722;28;20050;-73
2023/10/06 05:44:36;;;;;;;5.80;2.78;;;;;;;11.79;91.70;100861.38;6194434;28;20104;-72
2023/10/06 05:47:40;;;;;;;13.57;2.83;;;;;;;11.81;91.32;100867.38;6195591;28;20065;-72
2023/10/06 05:50:45;;;;;;;6.40;3.70;;;;;;;11.91;91.41;100872.16;6195293;28;20137;-73
2023/10/06 05:53:48;;;;;;;6.88;3.95;;;;;;;11.97;91.32;100877.06;6194568;28;20066;-72
2023/10/06 05:56:53;;;;;;;12.23;4.10;;;;;;;11.99;90.69;100880.44;6195762;28;20054;-72
2023/10/06 05:59:55;;;;;;;15.57;4.85;;;;;;;12.06;90.43;100877.38;6194292;28;20050;-73
2023/10/06 06:03:10;;;;;;;;;;;;;;;12.14;91.31;100887.44;6195941;28;20060;-73
2023/10/06 06:06:12;;;;;;;7.95;4.10;;;;;;;12.26;91.34;100885.94;6195240;28;20020;-73
2023/10/06 06:09:19;;;;;;;19.13;7.25;;;;;;;12.37;90.65;100891.41;6193642;28;20565;-73
2023/10/06 06:12:22;;;;;;;17.88;8.52;;;;;;;12.36;91.72;100899.38;6193690;28;20077;-73
2023/10/06 06:15:25;;;;;;;21.17;9.52;;;;;;;12.48;89.41;100896.06;6193763;28;20183;-73
2023/10/06 06:18:27;;;;;;;18.92;9.30;;;;;;;12.56;90.23;100900.84;6194095;28;20528;-73
2023/10/06 06:21:28;;;;;;;17.05;8.90;;;;;;;12.66;90.38;100908.13;6194046;28;20100;-72
2023/10/06 06:24:29;;;;;;;16.27;7.13;;;;;;;12.78;90.11;100917.06;6194745;28;20047;-73
2023/10/06 06:27:30;;;;;;;11.68;4.80;;;;;;;12.79;88.66;100915.28;6194495;28;20568;-73
2023/10/06 06:30:37;;;;;;;8.60;4.20;;;;;;;12.84;88.99;100921.94;6195032;28;20050;-73
2023/10/06 06:33:39;;;;;;;7.13;4.05;;;;;;;12.89;87.62;100921.69;6194617;28;20498;-73
2023/10/06 06:36:40;;;;;;;13.88;4.97;;;;;;;13.00;87.22;100926.31;6194534;28;20130;-73
2023/10/06 06:39:44;;;;;;;15.43;4.18;;;;;;;13.14;86.44;100933.38;6194636;28;20513;-72
2023/10/06 06:42:47;;;;;;;18.85;4.25;;;;;;;13.12;86.60;100953.59;6194443;28;20515;-73
2023/10/06 06:45:53;;;;;;;10.30;4.05;;;;;;;13.28;84.74;100946.50;6278035;28;20073;-72
2023/10/06 06:48:54;;;;;;;9.07;3.85;;;;;;;13.46;84.48;100949.88;6194357;28;20133;-72
2023/10/06 06:51:58;;;;;;;12.68;3.97;;;;;;;13.43;85.92;100953.53;6193270;28;20053;-73
2023/10/06 06:54:59;;;;;;;6.43;3.47;;;;;;;13.67;84.83;100956.50;6194396;28;20061;-73
2023/10/06 06:58:06;;;;;;;10.98;4.60;;;;;;;13.83;84.71;100950.31;6193250;28;20414;-73
2023/10/06 07:01:14;;;;;;;12.30;3.85;;;;;;;13.90;84.31;100952.47;6194336;28;20061;-73
2023/10/06 07:04:17;;;;;;;15.02;3.50;;;;;;;13.91;82.88;100958.56;6192980;28;20072;-72
2023/10/06 07:07:20;;;;;;;7.13;3.53;;;;;;;13.98;82.54;100956.41;6194301;28;20061;-72
2023/10/06 07:10:22;;;;;;;8.18;3.28;;;;;;;14.09;82.26;100965.31;6194024;28;20125;-72
2023/10/06 07:13:23;;;;;;;7.03;3.35;;;;;;;14.27;81.69;100963.34;6193993;28;20081;-73
2023/10/06 07:16:24;;;;;;;6.93;3.58;;;;;;;14.37;81.50;100961.00;6193900;28;20398;-73
2023/10/06 07:19:28;;;;;;;6.73;3.07;;;;;;;14.29;82.26;100960.63;6192935;28;20134;-73
2023/10/06 07:22:31;;;;;;;10.00;3.17;;;;;;;14.53;80.85;100960.84;6193837;28;20042;-73
2023/10/06 07:25:32;;;;;;;6.97;2.97;;;;;;;14.78;80.49;100960.16;6194045;28;20057;-73
2023/10/06 07:28:33;;;;;;;8.18;2.95;;;;;;;15.06;79.41;100971.53;6193740;28;20058;-73
2023/10/06 07:31:34;;;;;;;5.25;2.65;;;;;;;15.14;77.01;100971.03;6196728;28;20054;-72
2023/10/06 07:34:37;;;;;;;5.03;2.97;;;;;;;15.45;76.51;100968.03;6198001;28;20096;-73
2023/10/06 07:37:43;;;;;;;11.77;3.17;;;;;;;15.40;77.35;100972.78;6196637;28;20456;-73
2023/10/06 07:40:44;;;;;;;6.88;3.63;;;;;;;15.71;74.88;100971.56;6196567;28;20157;-73
2023/10/06 07:43:48;;;;;;;5.07;2.85;;;;;;;15.71;74.78;100974.19;6196898;28;20085;-72
2023/10/06 07:46:52;;;;;;;7.80;2.92;;;;;;;15.93;73.53;100982.44;6197769;28;20524;-73
2023/10/06 07:49:53;;;;;;;33.55;17.40;;;;;;;16.32;72.59;100979.66;6196308;28;20050;-73
2023/10/06 07:52:54;;;;;;;10.68;5.82;;;;;;;16.18;71.54;100977.13;6196335;28;20078;-73
2023/10/06 07:56:06;;;;;;;16.48;7.90;;;;;;;16.36;70.32;100977.66;6197487;28;20391;-73
2023/10/06 07:59:06;;;;;;;;;;;;;;;16.26;69.13;100982.72;6197953;28;20055;-72
2023/10/06 08:02:07;;;;;;;7.38;3.70;;;;;;;16.65;68.43;100980.84;6197393;28;19982;-73
2023/10/06 08:05:12;;;;;;;6.72;2.83;;;;;;;16.96;67.79;100991.00;6196243;28;20055;-73
2023/10/06 08:08:13;;;;;;;5.35;3.00;;;;;;;17.17;66.16;100996.47;6196312;28;20061;-73
2023/10/06 08:11:14;;;;;;;7.63;2.85;;;;;;;16.84;67.62;101006.75;6196357;28;20050;-72
2023/10/06 08:14:15;;;;;;;8.15;2.85;;;;;;;17.06;66.61;101006.00;6197179;28;20061;-73
2023/10/06 08:17:18;;;;;;;5.20;2.60;;;;;;;17.41;64.64;101017.56;6195962;28;20099;-71
2023/10/06 08:20:20;;;;;;;5.53;2.97;;;;;;;17.62;64.39;101015.09;6196880;28;20519;-71
2023/10/06 08:23:24;;;;;;;4.82;2.63;;;;;;;17.52;62.93;101018.44;6195931;28;20111;-71
2023/10/06 08:26:25;;;;;;;6.00;2.47;;;;;;;17.31;62.31;101031.41;6195278;28;20103;-71
2023/10/06 08:29:26;;;;;;;5.28;2.60;;;;;;;17.27;62.21;101032.59;6194594;28;20059;-71
2023/10/06 08:32:27;;;;;;;3.40;2.08;;;;;;;17.51;62.94;101039.66;6195364;28;20472;-70
2023/10/06 08:35:28;;;;;;;12.77;2.45;;;;;;;17.54;61.96;101039.41;6195382;28;20089;-71
2023/10/06 08:38:30;;;;;;;6.50;2.47;;;;;;;17.58;62.08;101040.88;6196724;28;20046;-71
2023/10/06 08:41:35;;;;;;;;;;;;;;;17.52;61.01;101041.34;6196057;28;20058;-71
2023/10/06 08:44:40;;;;;;;5.45;2.53;;;;;;;17.48;60.25;101039.88;6196457;28;20317;-71
2023/10/06 08:47:41;;;;;;;6.90;2.05;;;;;;;17.60;59.63;101038.13;6195485;28;20061;-71
2023/10/06 08:50:44;;;;;;;3.58;1.80;;;;;;;17.68;58.89;101033.94;6196338;28;20046;-71
2023/10/06 08:53:49;;;;;;;8.38;2.05;;;;;;;18.16;59.46;101033.00;6196120;28;20050;-71
2023/10/06 08:56:50;;;;;;;8.35;1.67;;;;;;;18.39;57.92;101039.16;6196454;28;20057;-71
2023/10/06 08:59:51;;;;;;;3.38;1.35;;;;;;;18.81;55.29;101041.19;6196068;28;20502;-71
2023/10/06 09:02:54;;;;;;;4.45;1.70;;;;;;;19.08;53.76;101036.28;6194831;28;20505;-73
2023/10/06 09:05:55;;;;;;;3.60;1.48;;;;;;;19.05;53.64;101043.66;6194768;28;20054;-71
2023/10/06 09:08:59;;;;;;;4.90;1.67;;;;;;;19.27;53.42;101042.72;6194693;28;20517;-71
2023/10/06 09:12:00;;;;;;;3.58;1.85;;;;;;;19.58;53.00;101042.84;6196123;28;20089;-73
2023/10/06 09:15:04;;;;;;;4.00;1.60;;;;;;;19.76;52.71;101032.56;6194573;28;20132;-73
2023/10/06 09:18:27;;;;;;;6.00;2.10;;;;;;;19.73;51.75;101039.78;6193769;28;20050;-73
2023/10/06 09:21:27;;;;;;;7.10;1.60;;;;;;;19.89;51.97;101041.97;6195850;28;20046;-73
2023/10/06 09:24:29;;;;;;;6.57;1.63;;;;;;;19.98;51.58;101040.34;6194722;28;20508;-71
2023/10/06 09:27:32;;;;;;;5.18;2.00;;;;;;;20.07;51.53;101036.06;6279296;28;20453;-72
2023/10/06 09:30:50;;;;;;;3.97;1.83;;;;;;;20.02;50.79;101043.59;6194267;28;20081;-71
2023/10/06 09:33:52;;;;;;;2.20;1.42;;;;;;;20.21;52.23;101037.53;6195421;28;20089;-71
2023/10/06 09:36:53;;;;;;;4.10;1.77;;;;;;;20.20;51.36;101034.06;6195560;28;20050;-70
2023/10/06 09:40:10;;;;;;;4.00;1.77;;;;;;;20.79;50.36;101035.13;6194102;28;20055;-71
2023/10/06 09:43:15;;;;;;;5.95;1.98;;;;;;;20.93;49.60;101031.25;6194251;28;20042;-71
2023/10/06 09:46:18;;;;;;;4.32;1.70;;;;;;;21.13;50.21;101030.31;6195089;28;20410;-73
2023/10/06 09:49:30;;;;;;;3.33;1.73;;;;;;;21.09;48.95;101025.41;6194391;28;20099;-73
2023/10/06 09:52:34;;;;;;;5.13;1.85;;;;;;;20.60;50.72;101022.66;6193814;28;20048;-73
2023/10/06 09:55:35;;;;;;;3.97;1.80;;;;;;;19.95;52.02;101030.00;6195350;28;20418;-73
2023/10/06 09:58:38;;;;;;;3.23;1.67;;;;;;;19.92;50.46;101025.81;6193890;28;20057;-73
2023/10/06 10:01:42;;;;;;;5.38;1.90;;;;;;;20.43;49.51;101020.63;6194146;28;20047;-73
2023/10/06 10:04:45;;;;;;;5.30;2.38;;;;;;;20.98;50.57;101015.78;6194976;28;20104;-73
2023/10/06 10:07:49;;;;;;;4.18;2.00;;;;;;;21.08;48.59;101015.75;6195388;28;20054;-73
2023/10/06 10:10:52;;;;;;;2.88;1.80;;;;;;;21.24;48.92;101009.91;6195101;28;20050;-73
2023/10/06 10:14:33;;;;;;;4.60;1.70;;;;;;;20.85;47.96;101009.88;6193884;28;20050;-73
2023/10/06 10:17:53;;;;;;;3.97;1.83;;;;;;;21.12;49.19;101015.34;6184027;28;20054;-73
2023/10/06 10:20:59;;;;;;;5.97;2.05;;;;;;;21.30;47.19;101015.50;6195080;28;20812;-73
2023/10/06 10:24:05;;;;;;;4.68;2.05;;;;;;;21.51;46.93;101015.38;6195050;28;20051;-73
2023/10/06 10:27:16;;;;;;;6.93;1.80;;;;;;;22.06;46.58;101009.38;6193364;28;20433;-73
2023/10/06 10:30:50;;;;;;;4.15;1.42;;;;;;;21.51;47.38;101009.22;6194221;28;20050;-71
2023/10/06 10:33:51;;;;;;;3.83;1.40;;;;;;;21.22;47.32;100998.59;6194468;28;20140;-71
2023/10/06 10:37:05;;;;;;;5.25;1.90;;;;;;;21.82;46.33;101001.91;6193432;28;20056;-71
2023/10/06 10:40:10;;;;;;;7.63;1.90;;;;;;;21.88;46.33;100996.00;6194300;28;20050;-71
2023/10/06 10:43:14;;;;;;;5.18;1.90;;;;;;;21.74;45.81;100977.88;6194470;28;20042;-71
2023/10/06 10:46:40;;;;;;;2.42;1.60;;;;;;;21.74;45.64;100985.84;6192916;28;20050;-71
2023/10/06 10:49:41;;;;;;;7.72;3.30;;;;;;;21.71;45.66;100978.16;6193081;28;20062;-71
2023/10/06 10:52:42;;;;;;;14.52;2.60;;;;;;;21.81;46.85;100986.13;6192636;28;20191;-71
2023/10/06 10:55:43;;;;;;;8.00;2.27;;;;;;;22.22;45.86;100982.19;6194248;28;20490;-72
2023/10/06 10:58:47;;;;;;;4.80;1.77;;;;;;;21.94;44.95;100979.50;6192960;28;20050;-71
2023/10/06 11:01:53;;;;;;;6.45;2.20;;;;;;;21.93;45.39;100977.81;6194154;28;20129;-71
2023/10/06 11:04:55;;;;;;;5.53;1.85;;;;;;;22.33;44.92;100984.69;6194438;28;20046;-72
2023/10/06 11:08:01;;;;;;;6.53;2.25;;;;;;;22.86;43.25;100972.47;6196703;28;20050;-71
2023/10/06 11:11:03;;;;;;;3.10;1.85;;;;;;;22.96;43.07;100979.53;6198308;28;20047;-73
2023/10/06 11:14:04;;;;;;;;;;;;;;;22.80;43.54;100978.38;6197641;28;20054;-73
2023/10/06 11:17:07;;;;;;;3.28;1.67;;;;;;;23.12;43.05;100971.72;6198326;28;20351;-72
2023/10/06 11:20:13;;;;;;;3.83;1.60;;;;;;;23.09;42.82;100974.69;6196751;28;20054;-72
2023/10/06 11:23:15;;;;;;;3.80;1.77;;;;;;;22.74;43.77;100965.69;6196655;28;20061;-71
2023/10/06 11:26:30;;;;;;;3.85;1.63;;;;;;;22.66;43.08;100974.41;6197929;28;20136;-71
2023/10/06 11:29:32;;;;;;;6.30;2.08;;;;;;;22.35;41.88;100973.06;6196494;28;20069;-72
2023/10/06 11:32:33;;;;;;;4.32;1.77;;;;;;;22.72;42.35;100965.00;6196679;28;20092;-73
2023/10/06 11:35:35;;;;;;;7.60;1.80;;;;;;;22.91;42.92;100961.34;6196971;28;20096;-73
2023/10/06 11:38:36;;;;;;;;;;;;;;;22.77;41.57;100952.06;6197133;28;20490;-74
2023/10/06 11:41:37;;;;;;;4.82;1.88;;;;;;;22.96;42.02;100961.75;6197662;28;20132;-72
2023/10/06 11:44:38;;;;;;;;;;;;;;;22.91;41.47;100961.34;6198054;28;20050;-72
2023/10/06 11:47:40;;;;;;;3.97;2.20;;;;;;;23.30;40.47;100953.91;6196785;28;19922;-73
2023/10/06 11:50:42;;;;;;;7.13;1.90;;;;;;;23.21;40.96;100957.50;6196717;28;20062;-73
2023/10/06 11:53:44;;;;;;;3.95;1.83;;;;;;;23.41;43.44;100939.53;6196316;28;20387;-74
2023/10/06 11:56:49;;;;;;;3.75;1.55;;;;;;;23.33;42.49;100950.94;6197707;28;20066;-73
2023/10/06 11:59:57;;;;;;;5.63;1.95;;;;;;;22.88;43.09;100945.72;6281640;28;20053;-71
2023/10/06 12:02:58;;;;;;;2.83;1.80;;;;;;;23.39;43.61;100935.31;6196205;28;20054;-71
2023/10/06 12:05:59;;;;;;;4.90;1.87;;;;;;;22.72;42.62;100941.06;6281248;28;20050;-71
2023/10/06 12:09:02;;;;;;;2.90;1.98;;;;;;;22.28;45.45;100940.94;6197425;28;20050;-73
2023/10/06 12:12:03;;;;;;;5.38;2.00;;;;;;;21.62;45.43;100939.19;6197114;28;20050;-72
2023/10/06 12:15:05;;;;;;;5.70;1.73;;;;;;;21.30;46.52;100938.53;6195873;28;20061;-72
2023/10/06 12:18:10;;;;;;;6.93;2.10;;;;;;;20.75;45.51;100932.94;6195113;28;20452;-73
2023/10/06 12:21:13;;;;;;;3.42;1.58;;;;;;;20.66;46.25;100942.56;6197003;28;20131;-73
2023/10/06 12:24:15;;;;;;;6.57;1.90;;;;;;;21.06;46.50;100938.13;6197080;28;20057;-71
2023/10/06 12:27:17;;;;;;;7.10;2.23;;;;;;;21.05;45.80;100931.97;6197547;28;20054;-72
2023/10/06 12:30:19;;;;;;;3.45;1.58;;;;;;;21.22;45.75;100938.38;6196973;28;20141;-71
2023/10/06 12:33:20;;;;;;;3.08;1.60;;;;;;;21.30;45.76;100919.94;6195235;28;20051;-73
2023/10/06 12:36:21;;;;;;;4.47;1.75;;;;;;;21.71;44.59;100920.56;6186214;28;20055;-73
2023/10/06 12:39:34;;;;;;;3.60;1.83;;;;;;;22.09;45.58;100915.22;6190137;28;20058;-74
2023/10/06 12:42:38;;;;;;;3.45;1.50;;;;;;;21.81;43.97;100904.59;6247827;28;20044;-73
2023/10/06 12:45:39;;;;;;;6.22;1.88;;;;;;;21.40;45.72;100900.53;6224159;28;20076;-73
2023/10/06 12:48:40;;;;;;;4.80;1.83;;;;;;;21.92;46.56;100898.25;6197188;28;20054;-73
2023/10/06 12:51:41;;;;;;;5.00;1.87;;;;;;;21.94;44.96;100899.78;6260096;28;20056;-74
2023/10/06 12:54:44;;;;;;;3.97;1.97;;;;;;;22.20;43.36;100891.13;6297914;28;20045;-73
2023/10/06 12:57:47;;;;;;;8.23;2.35;;;;;;;22.40;42.73;100886.53;6298776;28;20397;-74
2023/10/06 13:00:48;;;;;;;7.25;3.33;;;;;;;22.78;45.08;100865.97;6226249;28;20133;-74
2023/10/06 13:03:51;;;;;;;3.90;2.03;;;;;;;22.86;42.11;100855.41;6186665;28;20061;-74
2023/10/06 13:06:52;;;;;;;6.95;2.00;;;;;;;22.62;44.03;100866.66;6182489;28;20051;-74
2023/10/06 13:09:53;;;;;;;6.67;2.70;;;;;;;22.40;42.94;100859.94;6274477;28;20058;-73
2023/10/06 13:12:54;;;;;;;4.85;1.90;;;;;;;22.18;43.88;100858.56;6187432;28;20065;-73
2023/10/06 13:15:55;;;;;;;5.53;2.33;;;;;;;21.69;44.95;100858.78;6186424;28;20499;-74
2023/10/06 13:18:56;;;;;;;6.27;2.10;;;;;;;22.07;42.34;100853.44;6189061;28;20043;-74
2023/10/06 13:21:56;;;;;;;4.63;1.97;;;;;;;22.31;42.49;100851.06;6190812;28;20058;-73
2023/10/06 13:24:58;;;;;;;5.97;2.13;;;;;;;22.52;45.60;100856.09;6270654;28;20046;-74
2023/10/06 13:27:59;;;;;;;5.45;2.35;;;;;;;22.28;41.34;100847.91;6179839;28;20418;-74
2023/10/06 13:31:00;;;;;;;8.40;1.87;;;;;;;22.09;43.29;100847.00;6187526;28;20046;-74
2023/10/06 13:34:00;;;;;;;5.03;1.57;;;;;;;22.46;46.29;100846.06;6192621;28;20054;-74
2023/10/06 13:37:01;;;;;;;5.83;1.87;;;;;;;22.17;44.93;100843.56;6191186;28;20066;-74
2023/10/06 13:40:03;;;;;;;3.67;1.73;;;;;;;21.85;45.23;100836.09;6193564;28;20054;-74
2023/10/06 13:43:07;;;;;;;4.30;1.83;;;;;;;21.63;44.78;100842.63;6193672;28;20051;-73
2023/10/06 13:46:07;;;;;;;7.32;2.10;;;;;;;21.33;45.05;100850.66;6191671;28;20529;-74
2023/10/06 13:49:11;;;;;;;4.57;2.10;;;;;;;21.11;45.40;100851.81;6186840;28;20050;-73
2023/10/06 13:52:11;;;;;;;10.75;2.50;;;;;;;20.96;47.06;100853.25;6263764;28;20062;-74
2023/10/06 13:55:13;;;;;;;6.70;1.93;;;;;;;20.85;46.88;100859.53;6187921;28;20054;-73
2023/10/06 13:58:14;;;;;;;5.50;1.80;;;;;;;20.71;47.63;100855.50;6194754;28;20430;-74
2023/10/06 14:01:14;;;;;;;5.95;1.90;;;;;;;20.68;47.21;100861.06;6184912;28;20068;-73
2023/10/06 14:04:15;;;;;;;6.40;2.33;;;;;;;20.70;48.50;100853.00;6174938;28;20058;-73
2023/10/06 14:07:17;;;;;;;10.23;4.50;;;;;;;20.84;49.26;100843.78;6176148;28;20096;-74
2023/10/06 14:10:21;;;;;;;9.20;4.97;;;;;;;21.08;48.80;100845.94;6187825;28;20414;-74
2023/10/06 14:13:28;;;;;;;13.32;3.55;;;;;;;21.19;45.06;100842.28;6194578;28;20506;-73
2023/10/06 14:16:32;;;;;;;7.00;2.50;;;;;;;21.13;45.51;100841.06;6187827;28;20057;-73
2023/10/06 14:19:34;;;;;;;7.05;2.38;;;;;;;21.19;47.06;100845.81;6186201;28;20092;-74